METAR - Ísland

Uppfært síðast 27.10.2020 - kl. 10:12

SIGMET síðustu 6 klst.

Engin SIGMET skeyti bárust síðustu 6 klst.

METAR síðustu 3 klst

Flugv.TímiSkeyti
BIAR2020-10-27 10.00METAR BIAR 271000Z 32003KT 280V360 9999 BKN028 OVC056 02/M03 Q0995
BIAR2020-10-27 09.00METAR BIAR 270900Z 30003KT 9999 -SN OVC028 02/M02 Q0995
BIAR2020-10-27 08.00METAR BIAR 270800Z 25004KT 210V280 9999 OVC027 02/M03 Q0995
BIBD2020-10-27 10.00METAR BIBD 271000Z 04022KT 9999 SCT035 BKN050 04/M01 Q0991
BIBD2020-10-27 09.11METAR BIBD 270911Z 05018KT 9999 SCT035 BKN050 04/M01 Q0991
BIBD2020-10-27 08.00METAR BIBD 270800Z 00000KT 9999 FEW035 04/M02 Q0991
BIEG2020-10-27 10.00METAR BIEG 271000Z 01007KT 9999 FEW030 SCT045 BKN056 M00/M01 Q0995 R04/790194
BIEG2020-10-27 09.00METAR BIEG 270900Z 01008KT 9999 SCT030 BKN043 M00/M02 Q0994 R04/790194
BIEG2020-10-27 08.00METAR BIEG 270800Z 06004KT 9999 FEW004 BKN046 M01/M01 Q0995 R04/790194 RMK RWY SANDED
BIGR2020-10-27 10.00METAR BIGR 271000Z 08013G24KT 9999 OVC021 03/M02 Q0996
BIGR2020-10-27 09.00METAR BIGR 270900Z 08015KT 9999 FEW020 BKN038 02/M02 Q0996
BIGR2020-10-27 08.00METAR BIGR 270800Z 08014G24KT 9999 BKN029 03/M03 Q0996
BIHU2020-10-27 10.00METAR BIHU 271000Z VRB04KT 9999 SCT025 BKN055 02/M02 Q0995
BIHU2020-10-27 09.00METAR BIHU 270900Z 21005KT 9999 SCT025 BKN050 01/M02 Q0995
BIHU2020-10-27 08.00METAR BIHU 270800Z 13005KT 9999 SCT025 BKN050 01/M02 Q0995
BIIS2020-10-27 10.00METAR BIIS 271000Z 01025G51KT 340V070 9999 BKN033 04/M02 Q0991
BIIS2020-10-27 09.00METAR BIIS 270900Z 36026G54KT 330V070 9999 BKN033 04/M02 Q0992
BIIS2020-10-27 08.00METAR BIIS 270800Z 01030G59KT 330V050 9999 OVC030 04/M02 Q0992
BIKF2020-10-27 10.00METAR BIKF 271000Z 08023KT CAVOK 04/M02 Q0984
BIKF2020-10-27 09.30METAR BIKF 270930Z 07021KT CAVOK 04/M03 Q0984
BIKF2020-10-27 09.00METAR BIKF 270900Z 08024KT CAVOK 04/M03 Q0984
BIKF2020-10-27 08.30METAR BIKF 270830Z 07024KT CAVOK 04/M03 Q0984
BIKF2020-10-27 08.00METAR BIKF 270800Z 07025KT CAVOK 03/M03 Q0985
BIKF2020-10-27 07.30METAR BIKF 270730Z 07022KT 9999 FEW030 BKN160 BKN330 03/M03 Q0985
BIRK2020-10-27 10.00METAR BIRK 271000Z 09021G33KT CAVOK 05/M06 Q0984
BIRK2020-10-27 09.00METAR BIRK 270900Z 08022G33KT CAVOK 04/M06 Q0984
BIRK2020-10-27 08.00METAR BIRK 270800Z 08017KT CAVOK 04/M05 Q0985
BITN2020-10-27 10.00METAR BITN 271000Z 06008KT 9999 VCSH FEW006 BKN020 01/M02 Q0996 R01/390145
BITN2020-10-27 09.00METAR BITN 270900Z 08006KT 9999 4500S VCSH FEW006 BKN020 00/M01 Q0996 R01/390145
BITN2020-10-27 08.00METAR BITN 270800Z 09008KT 9999 BKN025 M01/M02 Q0996
BIVM2020-10-27 10.00METAR BIVM 271000Z 08035G47KT 8000 -DZ SCT015 BKN025 05/02 Q0982
BIVM2020-10-27 09.17METAR BIVM 270917Z 08035G51KT 8000 -DZ SCT015 BKN025 04/02 Q0982
BIVM2020-10-27 08.00METAR BIVM 270800Z 08036G50KT 9000 -DZ FEW008 SCT015 BKN020 04/02 Q0982
BIVO2020-10-27 08.00METAR BIVO 270800Z 22005KT 9999 FEW020 BKN030 M02/M03 Q0996 R05/492045

Textaspár eru skrifaðar af vakthafandi veðurfræðingi á Veðurstofu Íslands.




Aðrir tengdir vefir



Þetta vefsvæði byggir á Eplica